createdAt,value
2018-06-11T00:01:41.859Z,99.90
2018-06-11T00:04:10.506Z,99.90
2018-06-11T00:06:38.972Z,99.90
2018-06-11T00:09:08.493Z,99.90
2018-06-11T00:11:37.424Z,99.90
2018-06-11T00:14:06.111Z,99.90
2018-06-11T00:16:35.035Z,99.90
2018-06-11T00:19:03.591Z,99.90
2018-06-11T00:21:32.271Z,99.90
2018-06-11T00:24:01.139Z,99.90
2018-06-11T00:26:29.726Z,99.90
2018-06-11T00:28:58.289Z,99.90
2018-06-11T00:31:27.604Z,99.70
2018-06-11T00:33:56.113Z,99.70
2018-06-11T00:36:24.784Z,98.60
2018-06-11T00:38:53.307Z,98.30
2018-06-11T00:41:22.007Z,98.60
2018-06-11T00:43:50.900Z,98.50
2018-06-11T00:46:19.420Z,98.80
2018-06-11T00:48:47.882Z,98.50
2018-06-11T00:51:16.768Z,98.50
2018-06-11T00:53:45.263Z,98.80
2018-06-11T00:56:13.744Z,98.90
2018-06-11T00:58:42.344Z,98.40
2018-06-11T01:01:10.853Z,98.40
2018-06-11T01:03:39.397Z,98.60
2018-06-11T01:06:07.878Z,98.70
2018-06-11T01:08:36.450Z,98.40
2018-06-11T01:11:04.973Z,98.20
2018-06-11T01:13:33.509Z,98.20
2018-06-11T01:16:02.008Z,98.20
2018-06-11T01:18:30.646Z,98.30
2018-06-11T01:20:59.360Z,98.50
2018-06-11T01:23:27.867Z,98.70
2018-06-11T01:25:56.571Z,98.60
2018-06-11T01:28:25.262Z,99.30
2018-06-11T01:30:53.753Z,98.80
2018-06-11T01:33:22.435Z,98.70
2018-06-11T01:35:50.954Z,98.80
2018-06-11T01:38:19.441Z,99.00
2018-06-11T01:40:47.958Z,98.20
2018-06-11T01:43:16.439Z,98.70
2018-06-11T01:45:45.277Z,98.60
2018-06-11T01:48:13.975Z,99.00
2018-06-11T01:50:42.462Z,98.70
2018-06-11T01:53:11.092Z,98.70
2018-06-11T01:55:39.644Z,98.40
2018-06-11T01:58:08.183Z,98.40
2018-06-11T02:00:36.799Z,98.60
2018-06-11T02:03:05.491Z,98.40
2018-06-11T02:05:34.006Z,98.70
2018-06-11T02:08:02.531Z,99.00
2018-06-11T02:10:31.064Z,99.00
2018-06-11T02:12:59.699Z,99.00
2018-06-11T02:15:28.399Z,99.00
2018-06-11T02:17:57.160Z,99.00
2018-06-11T02:22:54.227Z,98.60
2018-06-11T02:25:22.962Z,98.60
2018-06-11T02:27:51.443Z,97.90
2018-06-11T02:30:20.065Z,98.20
2018-06-11T02:32:48.571Z,98.40
2018-06-11T02:35:17.067Z,98.50
2018-06-11T02:37:45.723Z,98.50
2018-06-11T02:40:14.259Z,98.10
2018-06-11T02:42:42.915Z,97.80
2018-06-11T02:45:11.453Z,98.20
2018-06-11T02:47:40.319Z,97.50
2018-06-11T02:50:08.787Z,97.90
2018-06-11T02:52:37.423Z,98.10
2018-06-11T02:55:06.254Z,98.10
2018-06-11T02:57:34.806Z,97.60
2018-06-11T03:00:03.415Z,97.90
2018-06-11T03:02:32.006Z,97.60
2018-06-11T03:05:00.560Z,97.80
2018-06-11T03:07:29.088Z,98.10
2018-06-11T03:09:57.636Z,98.20
2018-06-11T03:12:26.137Z,98.60
2018-06-11T03:14:55.218Z,98.60
2018-06-11T03:17:23.827Z,98.50
2018-06-11T03:19:52.412Z,98.50
2018-06-11T03:22:20.908Z,98.70
2018-06-11T03:24:49.427Z,98.70
2018-06-11T03:27:17.918Z,98.80
2018-06-11T03:29:46.443Z,98.80
2018-06-11T03:32:14.990Z,98.70
2018-06-11T03:34:43.487Z,99.00
2018-06-11T03:37:12.196Z,98.10
2018-06-11T03:39:40.765Z,98.60
2018-06-11T03:42:09.635Z,98.80
2018-06-11T03:44:38.270Z,98.30
2018-06-11T03:47:06.902Z,98.30
2018-06-11T03:49:35.420Z,98.30
2018-06-11T03:52:03.907Z,98.20
2018-06-11T03:54:32.732Z,98.60
2018-06-11T03:57:01.299Z,98.20
2018-06-11T03:59:29.825Z,98.00
2018-06-11T04:01:58.367Z,97.90
2018-06-11T04:04:26.915Z,97.90
2018-06-11T04:06:55.441Z,97.80
2018-06-11T04:09:23.945Z,97.60
2018-06-11T04:11:52.565Z,98.00
2018-06-11T04:14:21.130Z,98.50
2018-06-11T04:16:49.610Z,98.60
2018-06-11T04:19:18.343Z,98.90
2018-06-11T04:21:47.020Z,99.00
2018-06-11T04:24:15.719Z,99.10
2018-06-11T04:26:44.403Z,99.00
2018-06-11T04:29:13.104Z,98.90
2018-06-11T04:31:41.727Z,99.00
2018-06-11T04:34:10.317Z,98.90
2018-06-11T04:36:39.145Z,98.80
2018-06-11T04:39:08.414Z,99.00
2018-06-11T04:41:37.063Z,99.10
2018-06-11T04:44:05.591Z,98.90
2018-06-11T04:46:34.163Z,99.20
2018-06-11T04:49:02.877Z,99.00
2018-06-11T04:51:31.445Z,99.00
2018-06-11T04:54:00.317Z,99.00
2018-06-11T04:56:28.896Z,98.90
2018-06-11T04:58:57.424Z,98.90
2018-06-11T05:01:26.064Z,99.10
2018-06-11T05:03:54.832Z,99.00
2018-06-11T05:06:23.447Z,98.80
2018-06-11T05:08:51.994Z,98.60
2018-06-11T05:11:20.494Z,98.40
2018-06-11T05:13:49.125Z,98.00
2018-06-11T05:16:17.685Z,97.60
2018-06-11T05:18:46.322Z,97.70
2018-06-11T05:21:14.830Z,97.40
2018-06-11T05:23:43.535Z,97.40
2018-06-11T05:26:12.029Z,96.80
2018-06-11T05:28:40.667Z,96.50
2018-06-11T05:31:09.417Z,96.60
2018-06-11T05:36:06.255Z,96.00
2018-06-11T05:38:34.798Z,95.90
2018-06-11T05:41:03.611Z,95.90
2018-06-11T05:43:32.095Z,96.50
2018-06-11T05:46:00.628Z,96.50
2018-06-11T05:48:29.605Z,96.00
2018-06-11T05:53:26.821Z,96.20
2018-06-11T05:55:55.612Z,96.10
2018-06-11T05:58:24.347Z,96.10
2018-06-11T06:00:52.896Z,95.90
2018-06-11T06:03:21.433Z,95.80
2018-06-11T06:05:49.928Z,95.80
2018-06-11T06:08:18.677Z,95.70
2018-06-11T06:10:47.157Z,95.50
2018-06-11T06:13:15.844Z,94.90
2018-06-11T06:15:44.507Z,94.70
2018-06-11T06:18:13.020Z,94.40
2018-06-11T06:20:41.515Z,93.90
2018-06-11T06:23:10.055Z,94.00
2018-06-11T06:25:38.539Z,93.40
2018-06-11T06:28:07.101Z,93.50
2018-06-11T06:30:35.701Z,93.70
2018-06-11T06:33:04.502Z,93.90
2018-06-11T06:35:33.177Z,93.80
2018-06-11T06:38:01.670Z,93.70
2018-06-11T06:40:30.773Z,93.60
2018-06-11T06:42:59.247Z,93.80
2018-06-11T06:45:27.724Z,93.70
2018-06-11T06:47:56.435Z,93.80
2018-06-11T06:50:24.951Z,93.80
2018-06-11T06:52:53.513Z,93.30
2018-06-11T06:55:22.301Z,93.30
2018-06-11T06:57:50.850Z,93.50
2018-06-11T07:00:19.344Z,92.40
2018-06-11T07:02:47.963Z,92.60
2018-06-11T07:05:16.493Z,92.10
2018-06-11T07:07:45.061Z,92.00
2018-06-11T07:10:13.990Z,92.50
2018-06-11T07:12:42.659Z,92.70
2018-06-11T07:15:11.219Z,92.60
2018-06-11T07:17:39.812Z,92.80
2018-06-11T07:20:08.460Z,92.70
2018-06-11T07:22:37.725Z,92.70
2018-06-11T07:25:06.607Z,92.50
2018-06-11T07:27:35.296Z,92.50
2018-06-11T07:30:03.911Z,92.80
2018-06-11T07:32:32.597Z,92.80
2018-06-11T07:35:01.092Z,93.00
2018-06-11T07:37:29.654Z,93.30
2018-06-11T07:39:58.223Z,94.20
2018-06-11T07:42:26.706Z,93.50
2018-06-11T07:44:55.311Z,94.00
2018-06-11T07:47:25.010Z,95.10
2018-06-11T07:49:53.514Z,95.20
2018-06-11T07:52:22.108Z,95.40
2018-06-11T07:54:50.631Z,95.20
2018-06-11T07:57:19.331Z,94.20
2018-06-11T07:59:47.855Z,93.70
2018-06-11T08:02:16.427Z,93.40
2018-06-11T08:04:45.001Z,92.60
2018-06-11T08:07:13.652Z,92.60
2018-06-11T08:09:42.185Z,93.20
2018-06-11T08:12:10.662Z,93.50
2018-06-11T08:14:39.165Z,93.70
2018-06-11T08:17:07.827Z,93.40
2018-06-11T08:19:36.333Z,93.20
2018-06-11T08:22:05.359Z,93.30
2018-06-11T08:24:34.040Z,93.50
2018-06-11T08:27:02.742Z,92.60
2018-06-11T08:29:31.346Z,92.20
2018-06-11T08:31:59.874Z,90.30
2018-06-11T08:34:28.369Z,88.20
2018-06-11T08:36:57.387Z,88.70
2018-06-11T08:39:25.962Z,84.50
2018-06-11T08:41:54.620Z,82.50
2018-06-11T08:44:23.112Z,81.20
2018-06-11T08:49:20.199Z,78.10
2018-06-11T08:51:48.782Z,77.30
2018-06-11T08:54:17.462Z,76.00
2018-06-11T08:56:45.967Z,75.10
2018-06-11T08:59:14.520Z,75.00
2018-06-11T09:01:43.233Z,72.50
2018-06-11T09:04:11.864Z,72.00
2018-06-11T09:06:40.436Z,70.70
2018-06-11T09:09:09.343Z,73.60
2018-06-11T09:11:38.015Z,72.90
2018-06-11T09:14:06.500Z,70.60
2018-06-11T09:16:35.289Z,70.40
2018-06-11T09:19:03.803Z,72.30
2018-06-11T09:21:32.528Z,70.70
2018-06-11T09:24:01.273Z,71.60
2018-06-11T09:26:30.022Z,73.50
2018-06-11T09:28:58.661Z,71.40
2018-06-11T09:31:27.401Z,71.20
2018-06-11T09:33:56.112Z,68.40
2018-06-11T09:36:24.632Z,69.90
2018-06-11T09:38:53.181Z,68.60
2018-06-11T09:43:50.063Z,66.60
2018-06-11T09:46:18.742Z,63.00
2018-06-11T09:48:47.219Z,61.70
2018-06-11T09:51:15.918Z,61.60
2018-06-11T09:53:44.603Z,64.10
2018-06-11T09:56:13.120Z,64.90
2018-06-11T09:58:41.846Z,65.30
2018-06-11T10:01:10.419Z,63.90
2018-06-11T10:03:39.020Z,63.40
2018-06-11T10:06:07.601Z,60.10
2018-06-11T10:08:36.208Z,61.60
2018-06-11T10:11:04.880Z,61.10
2018-06-11T10:13:33.483Z,59.00
2018-06-11T10:16:02.179Z,57.60
2018-06-11T10:18:31.194Z,57.20
2018-06-11T10:20:59.736Z,57.70
2018-06-11T10:23:28.291Z,60.80
2018-06-11T10:25:57.108Z,60.10
2018-06-11T10:28:25.724Z,59.70
2018-06-11T10:30:54.315Z,59.40
2018-06-11T10:33:22.860Z,58.90
2018-06-11T10:35:51.584Z,59.60
2018-06-11T10:38:20.225Z,62.30
2018-06-11T10:40:49.066Z,61.10
2018-06-11T10:43:17.605Z,56.30
2018-06-11T10:45:46.125Z,53.70
2018-06-11T10:48:14.630Z,52.00
2018-06-11T10:53:11.867Z,50.80
2018-06-11T10:55:40.404Z,49.50
2018-06-11T10:58:09.127Z,47.40
2018-06-11T11:00:37.835Z,46.70
2018-06-11T11:03:06.628Z,46.60
2018-06-11T11:05:35.245Z,44.90
2018-06-11T11:08:03.776Z,42.20
2018-06-11T11:10:32.458Z,41.50
2018-06-11T11:13:01.484Z,41.50
2018-06-11T11:15:30.059Z,43.90
2018-06-11T11:17:58.755Z,45.50
2018-06-11T11:20:27.480Z,48.20
2018-06-11T11:22:55.996Z,49.70
2018-06-11T11:25:24.662Z,49.00
2018-06-11T11:27:53.372Z,50.50
2018-06-11T11:30:21.858Z,49.00
2018-06-11T11:32:50.377Z,49.10
2018-06-11T11:35:18.945Z,48.00
2018-06-11T11:37:47.558Z,48.90
2018-06-11T11:40:16.175Z,46.30
2018-06-11T11:42:44.633Z,46.50
2018-06-11T11:45:13.430Z,43.30
2018-06-11T11:47:42.083Z,43.70
2018-06-11T11:52:38.789Z,40.20
2018-06-11T11:55:07.270Z,38.80
2018-06-11T11:57:35.994Z,39.00
2018-06-11T12:00:05.317Z,40.30
2018-06-11T12:02:33.836Z,42.10
2018-06-11T12:05:02.425Z,44.20
2018-06-11T12:07:31.376Z,43.10
2018-06-11T12:09:59.995Z,40.00
2018-06-11T12:12:28.671Z,42.00
2018-06-11T12:14:57.621Z,39.80
2018-06-11T12:17:26.233Z,38.20
2018-06-11T12:19:54.950Z,38.70
2018-06-11T12:22:23.487Z,38.30
2018-06-11T12:24:52.135Z,37.00
2018-06-11T12:27:20.718Z,35.50
2018-06-11T12:29:49.407Z,35.10
2018-06-11T12:32:18.247Z,35.60
2018-06-11T12:34:47.133Z,36.80
2018-06-11T12:37:15.621Z,37.60
2018-06-11T12:39:44.171Z,36.70
2018-06-11T12:42:12.658Z,35.00
2018-06-11T12:44:41.403Z,33.10
2018-06-11T12:47:10.101Z,33.10
2018-06-11T12:49:38.830Z,30.80
2018-06-11T12:52:07.648Z,33.20
2018-06-11T12:54:36.146Z,32.50
2018-06-11T12:57:05.000Z,31.40
2018-06-11T12:59:33.757Z,29.60
2018-06-11T13:02:02.400Z,33.20
2018-06-11T13:04:31.069Z,35.50
2018-06-11T13:06:59.826Z,32.90
2018-06-11T13:09:28.445Z,34.30
2018-06-11T13:11:57.670Z,36.80
2018-06-11T13:14:26.360Z,38.00
2018-06-11T13:16:54.992Z,37.80
2018-06-11T13:19:23.561Z,34.80
2018-06-11T13:21:52.322Z,33.20
2018-06-11T13:24:21.081Z,37.00
2018-06-11T13:26:50.093Z,35.90
2018-06-11T13:29:18.932Z,35.30
2018-06-11T13:31:47.578Z,35.70
2018-06-11T13:34:16.289Z,38.40
2018-06-11T13:36:45.050Z,39.20
2018-06-11T13:39:13.796Z,40.90
2018-06-11T13:41:42.521Z,39.10
2018-06-11T13:44:11.176Z,37.60
2018-06-11T13:46:39.827Z,36.10
2018-06-11T13:49:08.536Z,35.40
2018-06-11T13:51:37.435Z,36.10
2018-06-11T13:54:06.081Z,38.80
2018-06-11T13:56:34.632Z,35.60
2018-06-11T13:59:03.428Z,33.30
2018-06-11T14:01:32.065Z,33.10
2018-06-11T14:04:00.668Z,33.10
2018-06-11T14:06:29.373Z,34.00
2018-06-11T14:08:57.919Z,36.80
2018-06-11T14:11:26.511Z,37.20
2018-06-11T14:13:55.245Z,36.80
2018-06-11T14:18:52.378Z,39.10
2018-06-11T14:21:20.971Z,38.40
2018-06-11T14:23:49.802Z,40.50
2018-06-11T14:26:18.472Z,40.00
2018-06-11T14:28:47.040Z,41.60
2018-06-11T14:31:15.604Z,42.40
2018-06-11T14:33:44.340Z,43.30
2018-06-11T14:36:13.103Z,44.60
2018-06-11T14:38:41.664Z,46.20
2018-06-11T14:41:10.252Z,47.70
2018-06-11T14:43:39.086Z,49.50
2018-06-11T14:46:07.995Z,49.50
2018-06-11T14:48:36.523Z,48.50
2018-06-11T14:51:05.469Z,49.50
2018-06-11T14:53:34.497Z,50.00
2018-06-11T14:56:03.220Z,50.20
2018-06-11T14:58:32.169Z,50.40
2018-06-11T15:01:00.848Z,50.20
2018-06-11T15:03:29.601Z,52.20
2018-06-11T15:05:58.149Z,52.10
2018-06-11T15:08:26.975Z,52.00
2018-06-11T15:10:55.788Z,53.30
2018-06-11T15:13:24.650Z,54.00
2018-06-11T15:15:53.474Z,54.10
2018-06-11T15:18:22.554Z,54.50
2018-06-11T15:20:51.309Z,55.50
2018-06-11T15:23:20.117Z,55.10
2018-06-11T15:28:17.342Z,56.30
2018-06-11T15:30:45.939Z,54.60
2018-06-11T15:33:14.942Z,55.50
2018-06-11T15:35:43.813Z,56.10
2018-06-11T15:38:12.622Z,55.40
2018-06-11T15:40:41.367Z,56.10
2018-06-11T15:43:10.153Z,54.90
2018-06-11T15:45:39.164Z,54.70
2018-06-11T15:48:07.823Z,54.80
2018-06-11T15:50:36.337Z,55.20
2018-06-11T15:53:05.082Z,55.60
2018-06-11T15:55:33.596Z,56.90
2018-06-11T15:58:02.853Z,57.30
2018-06-11T16:00:31.597Z,58.30
2018-06-11T16:03:00.748Z,58.50
2018-06-11T16:05:29.465Z,59.40
2018-06-11T16:07:58.395Z,58.30
2018-06-11T16:10:27.146Z,58.00
2018-06-11T16:12:55.732Z,58.00
2018-06-11T16:15:24.770Z,58.90
2018-06-11T16:17:53.553Z,57.80
2018-06-11T16:20:22.370Z,57.70
2018-06-11T16:22:51.000Z,58.20
2018-06-11T16:25:19.888Z,58.80
2018-06-11T16:27:48.906Z,59.00
2018-06-11T16:30:17.872Z,59.10
2018-06-11T16:32:46.716Z,59.30
2018-06-11T16:35:15.491Z,59.70
2018-06-11T16:37:44.069Z,59.80
2018-06-11T16:40:12.840Z,60.30
2018-06-11T16:42:41.530Z,60.60
2018-06-11T16:45:10.738Z,61.60
2018-06-11T16:47:39.406Z,62.40
2018-06-11T16:50:08.107Z,62.30
2018-06-11T16:52:37.199Z,62.00
2018-06-11T16:55:06.081Z,61.30
2018-06-11T16:57:34.935Z,61.30
2018-06-11T17:00:03.680Z,61.70
2018-06-11T17:02:32.453Z,62.30
2018-06-11T17:05:01.561Z,61.80
2018-06-11T17:07:30.550Z,62.00
2018-06-11T17:09:59.229Z,61.80
2018-06-11T17:12:28.014Z,62.40
2018-06-11T17:14:56.575Z,62.40
2018-06-11T17:17:25.347Z,63.10
2018-06-11T17:19:53.923Z,63.00
2018-06-11T17:22:22.803Z,63.40
2018-06-11T17:24:51.767Z,63.70
2018-06-11T17:27:20.622Z,63.80
2018-06-11T17:29:49.186Z,64.90
2018-06-11T17:32:18.038Z,64.90
2018-06-11T17:34:47.345Z,65.60
2018-06-11T17:37:16.317Z,65.30
2018-06-11T17:39:45.101Z,64.90
2018-06-11T17:42:14.110Z,65.90
2018-06-11T17:44:42.973Z,64.30
2018-06-11T17:47:11.720Z,65.60
2018-06-11T17:49:40.605Z,64.90
2018-06-11T17:52:09.439Z,65.00
2018-06-11T17:54:38.253Z,64.40
2018-06-11T17:57:07.272Z,65.10
2018-06-11T17:59:36.018Z,65.00
2018-06-11T18:02:04.790Z,64.50
2018-06-11T18:04:33.757Z,64.40
2018-06-11T18:07:02.630Z,65.40
2018-06-11T18:09:31.697Z,64.70
2018-06-11T18:12:00.770Z,67.20
2018-06-11T18:14:29.630Z,66.60
2018-06-11T18:16:58.512Z,65.60
2018-06-11T18:19:27.622Z,65.20
2018-06-11T18:21:56.569Z,67.00
2018-06-11T18:24:25.391Z,66.30
2018-06-11T18:26:54.228Z,66.90
2018-06-11T18:29:23.441Z,67.10
2018-06-11T18:31:52.178Z,67.00
2018-06-11T18:34:20.828Z,65.40
2018-06-11T18:36:49.661Z,66.40
2018-06-11T18:39:19.697Z,66.50
2018-06-11T18:41:48.671Z,67.50
2018-06-11T18:44:17.428Z,68.20
2018-06-11T18:46:46.341Z,69.90
2018-06-11T18:49:15.578Z,71.20
2018-06-11T18:51:44.693Z,70.70
2018-06-11T18:54:13.297Z,69.30
2018-06-11T18:56:42.327Z,69.10
2018-06-11T18:59:11.274Z,69.20
2018-06-11T19:01:40.338Z,69.50
2018-06-11T19:04:09.466Z,71.80
2018-06-11T19:06:38.119Z,72.50
2018-06-11T19:09:08.619Z,74.30
2018-06-11T19:11:38.214Z,73.10
2018-06-11T19:14:07.126Z,72.90
2018-06-11T19:16:36.131Z,73.30
2018-06-11T19:19:04.892Z,72.60
2018-06-11T19:21:33.765Z,75.00
2018-06-11T19:24:02.432Z,77.00
2018-06-11T19:26:31.127Z,78.50
2018-06-11T19:28:59.910Z,79.30
2018-06-11T19:31:29.190Z,80.60
2018-06-11T19:33:57.921Z,80.50
2018-06-11T19:36:27.009Z,80.30
2018-06-11T19:38:55.809Z,81.10
2018-06-11T19:41:24.779Z,82.50
2018-06-11T19:43:53.842Z,81.90
2018-06-11T19:46:22.980Z,81.90
2018-06-11T19:48:52.151Z,81.90
2018-06-11T19:51:20.906Z,80.00
2018-06-11T19:53:49.974Z,78.80
2018-06-11T19:58:47.274Z,78.60
2018-06-11T20:01:15.911Z,79.60
2018-06-11T20:03:44.982Z,80.30
2018-06-11T20:06:13.754Z,81.10
2018-06-11T20:08:42.667Z,82.80
2018-06-11T20:11:11.297Z,84.30
2018-06-11T20:13:39.871Z,84.40
2018-06-11T20:16:08.420Z,84.00
2018-06-11T20:18:37.339Z,84.70
2018-06-11T20:21:06.125Z,84.10
2018-06-11T20:23:34.766Z,82.30
2018-06-11T20:26:03.496Z,80.70
2018-06-11T20:28:32.349Z,80.30
2018-06-11T20:31:00.959Z,79.90
2018-06-11T20:33:29.982Z,80.00
2018-06-11T20:35:58.622Z,80.40
2018-06-11T20:38:27.334Z,81.10
2018-06-11T20:40:55.954Z,81.50
2018-06-11T20:43:24.647Z,82.70
2018-06-11T20:45:53.568Z,83.40
2018-06-11T20:48:22.506Z,83.10
2018-06-11T20:50:51.374Z,83.30
2018-06-11T20:53:20.474Z,85.00
2018-06-11T20:55:49.243Z,84.30
2018-06-11T20:58:17.941Z,82.70
2018-06-11T21:00:46.940Z,82.20
2018-06-11T21:03:15.628Z,82.60
2018-06-11T21:05:44.201Z,82.40
2018-06-11T21:08:12.986Z,81.70
2018-06-11T21:10:41.835Z,82.80
2018-06-11T21:13:10.616Z,83.30
2018-06-11T21:15:39.376Z,83.30
2018-06-11T21:18:08.172Z,84.60
2018-06-11T21:20:37.080Z,85.30
2018-06-11T21:23:05.652Z,85.10
2018-06-11T21:25:34.170Z,83.90
2018-06-11T21:28:02.888Z,83.70
2018-06-11T21:30:31.697Z,85.80
2018-06-11T21:33:00.305Z,84.20
2018-06-11T21:35:29.146Z,85.60
2018-06-11T21:37:57.696Z,86.70
2018-06-11T21:40:26.520Z,86.20
2018-06-11T21:42:55.085Z,85.90
2018-06-11T21:45:23.969Z,86.10
2018-06-11T21:47:52.485Z,88.00
2018-06-11T21:52:49.422Z,90.30
2018-06-11T21:55:18.308Z,90.70
2018-06-11T21:57:46.848Z,91.30
2018-06-11T22:00:16.417Z,91.50
2018-06-11T22:02:45.052Z,92.00
2018-06-11T22:05:13.735Z,92.60
2018-06-11T22:07:42.530Z,92.90
2018-06-11T22:10:11.045Z,93.50
2018-06-11T22:12:39.584Z,93.60
2018-06-11T22:15:08.120Z,93.70
2018-06-11T22:17:36.710Z,94.00
2018-06-11T22:22:33.674Z,94.30
2018-06-11T22:25:02.923Z,94.30
2018-06-11T22:27:31.671Z,94.60
2018-06-11T22:30:00.430Z,94.60
2018-06-11T22:32:29.026Z,95.00
2018-06-11T22:34:58.160Z,94.70
2018-06-11T22:37:26.699Z,94.80
2018-06-11T22:39:55.465Z,95.00
2018-06-11T22:42:24.203Z,95.20
2018-06-11T22:44:52.919Z,95.20
2018-06-11T22:47:21.743Z,95.00
2018-06-11T22:49:50.227Z,95.10
2018-06-11T22:52:18.741Z,95.20
2018-06-11T22:54:47.337Z,95.30
2018-06-11T22:57:15.832Z,95.60
2018-06-11T22:59:44.318Z,95.70
2018-06-11T23:02:13.081Z,95.90
2018-06-11T23:04:42.085Z,96.00
2018-06-11T23:07:11.176Z,96.30
2018-06-11T23:09:39.672Z,96.60
2018-06-11T23:12:08.194Z,96.60
2018-06-11T23:14:36.818Z,96.60
2018-06-11T23:17:05.332Z,96.50
2018-06-11T23:19:33.861Z,96.60
2018-06-11T23:22:03.228Z,96.80
2018-06-11T23:24:31.751Z,96.90
2018-06-11T23:27:00.264Z,96.60
2018-06-11T23:29:28.780Z,96.80
2018-06-11T23:31:57.418Z,96.60
2018-06-11T23:34:26.057Z,96.80
2018-06-11T23:36:54.545Z,96.90
2018-06-11T23:41:51.438Z,97.50
2018-06-11T23:44:20.252Z,97.70
2018-06-11T23:46:48.808Z,97.40
2018-06-11T23:49:17.461Z,97.20
2018-06-11T23:51:45.964Z,97.30
2018-06-11T23:54:14.467Z,97.40
2018-06-11T23:56:43.086Z,97.10
2018-06-11T23:59:11.652Z,97.30
